Main page
METAR-TAF:

METAR-TAF

Airports :

Ilorin, Nigeria

Ilorin International Airport

latitude: 08-29N, longitude: 004-35E, elevation: 308 m

METAR: missing

Time: 03:34 (02:34 UTC)

Forecast

The report was made 4 hours and 44 minutes ago, at 21:50 UTC
Forecast valid from 26 at 00 UTC to 27 at 06 UTC
Wind 10 kt from the South
Visibility 10 km or more
Few clouds at a height of 1000 ft
Becoming
from 26 at 05 UTC to 26 at 08 UTC
Wind 9 kt from the West
Broken clouds at a height of 1000 ft

TAF: DNIL 252150Z 2600/2706 18010KT 9999 FEW010 BECMG 2605/2608 26009KT BKN010

Weather observations and forecasts of more than 4000 airports (METAR and TAF reports).

The available stations are represented by yellow and red dots on the map.

Hover mouse over dot to see the name of the station.

Then click to see weather observations and forecasts.

To change the map : click on the green buttons with a black cross to zoom in, on the green button with a dash to zoom out, or on the green arrows for adjacent maps.


METAR-TAF: